createdAt,value
2023-01-11T00:00:46.181Z,6.44
2023-01-11T00:01:46.200Z,6.48
2023-01-11T00:02:46.147Z,6.40
2023-01-11T00:03:46.146Z,6.41
2023-01-11T00:04:46.179Z,6.43
2023-01-11T00:05:46.096Z,6.49
2023-01-11T00:06:46.077Z,6.51
2023-01-11T00:07:46.053Z,6.48
2023-01-11T00:08:46.043Z,6.51
2023-01-11T00:09:46.026Z,6.61
2023-01-11T00:10:45.989Z,6.54
2023-01-11T00:11:45.971Z,6.52
2023-01-11T00:12:45.983Z,6.61
2023-01-11T00:13:45.931Z,6.67
2023-01-11T00:14:45.910Z,6.62
2023-01-11T00:15:45.952Z,6.74
2023-01-11T00:16:45.878Z,6.76
2023-01-11T00:17:45.901Z,6.69
2023-01-11T00:18:45.837Z,6.69
2023-01-11T00:19:45.830Z,6.76
2023-01-11T00:20:45.819Z,6.76
2023-01-11T00:21:45.811Z,6.84
2023-01-11T00:22:45.787Z,6.84
2023-01-11T00:23:45.741Z,6.88
2023-01-11T00:24:45.726Z,6.84
2023-01-11T00:25:45.733Z,6.80
2023-01-11T00:26:45.687Z,6.79
2023-01-11T00:27:45.695Z,6.91
2023-01-11T00:28:45.649Z,6.92
2023-01-11T00:29:45.631Z,6.94
2023-01-11T00:30:45.615Z,6.92
2023-01-11T00:31:45.593Z,7.02
2023-01-11T00:32:45.627Z,6.97
2023-01-11T00:33:45.553Z,6.99
2023-01-11T00:34:45.575Z,6.95
2023-01-11T00:35:45.516Z,7.02
2023-01-11T00:36:45.511Z,7.02
2023-01-11T00:37:45.489Z,6.98
2023-01-11T00:38:45.517Z,7.07
2023-01-11T00:39:45.452Z,6.98
2023-01-11T00:40:45.433Z,6.97
2023-01-11T00:41:45.403Z,6.98
2023-01-11T00:42:45.395Z,6.95
2023-01-11T00:43:45.371Z,7.07
2023-01-11T00:44:45.388Z,6.92
2023-01-11T00:45:45.409Z,7.12
2023-01-11T00:46:45.311Z,7.07
2023-01-11T00:47:45.307Z,7.10
2023-01-11T00:48:45.319Z,7.06
2023-01-11T00:49:45.258Z,7.13
2023-01-11T00:50:45.238Z,7.05
2023-01-11T00:51:45.219Z,7.03
2023-01-11T00:52:45.205Z,7.10
2023-01-11T00:53:45.228Z,6.99
2023-01-11T00:54:45.182Z,7.09
2023-01-11T00:55:45.146Z,7.10
2023-01-11T00:56:45.129Z,7.10
2023-01-11T00:57:45.117Z,7.13
2023-01-11T00:58:45.129Z,7.16
2023-01-11T00:59:45.083Z,7.09
2023-01-11T01:00:45.061Z,7.10
2023-01-11T01:01:45.116Z,7.24
2023-01-11T01:02:45.106Z,7.24
2023-01-11T01:03:44.999Z,7.23
2023-01-11T01:04:44.991Z,7.20
2023-01-11T01:05:44.958Z,7.13
2023-01-11T01:06:45.037Z,7.21
2023-01-11T01:07:44.919Z,7.21
2023-01-11T01:08:44.948Z,7.27
2023-01-11T01:09:44.884Z,7.28
2023-01-11T01:10:44.880Z,7.28
2023-01-11T01:11:44.861Z,7.30
2023-01-11T01:12:44.839Z,7.34
2023-01-11T01:13:44.842Z,7.34
2023-01-11T01:14:44.820Z,7.34
2023-01-11T01:15:44.875Z,7.32
2023-01-11T01:16:44.764Z,7.30
2023-01-11T01:17:44.737Z,7.37
2023-01-11T01:18:44.723Z,7.34
2023-01-11T01:19:44.703Z,7.34
2023-01-11T01:20:44.687Z,7.46
2023-01-11T01:21:44.695Z,7.42
2023-01-11T01:22:44.654Z,7.40
2023-01-11T01:23:44.627Z,7.39
2023-01-11T01:24:44.637Z,7.42
2023-01-11T01:25:44.595Z,7.35
2023-01-11T01:26:44.625Z,7.43
2023-01-11T01:27:44.566Z,7.40
2023-01-11T01:28:44.548Z,7.34
2023-01-11T01:29:44.523Z,7.32
2023-01-11T01:30:44.525Z,7.40
2023-01-11T01:31:44.552Z,7.40
2023-01-11T01:32:44.464Z,7.42
2023-01-11T01:33:44.449Z,7.48
2023-01-11T01:34:44.435Z,7.48
2023-01-11T01:35:44.413Z,7.53
2023-01-11T01:36:44.394Z,7.43
2023-01-11T01:37:44.400Z,7.45
2023-01-11T01:38:44.394Z,7.43
2023-01-11T01:39:44.349Z,7.46
2023-01-11T01:40:44.327Z,7.52
2023-01-11T01:41:44.324Z,7.52
2023-01-11T01:42:44.286Z,7.32
2023-01-11T01:43:46.767Z,7.48
2023-01-11T01:44:44.256Z,7.35
2023-01-11T01:45:44.232Z,7.40
2023-01-11T01:46:44.213Z,7.39
2023-01-11T01:47:44.200Z,7.39
2023-01-11T01:48:44.178Z,7.45
2023-01-11T01:49:44.160Z,7.37
2023-01-11T01:50:44.157Z,7.48
2023-01-11T01:51:44.117Z,7.34
2023-01-11T01:52:44.104Z,7.37
2023-01-11T01:53:44.083Z,7.37
2023-01-11T01:54:44.097Z,7.39
2023-01-11T01:55:44.047Z,7.40
2023-01-11T01:56:44.028Z,7.39
2023-01-11T01:57:44.010Z,7.34
2023-01-11T01:58:44.031Z,7.39
2023-01-11T01:59:43.997Z,7.42
2023-01-11T02:00:43.989Z,7.40
2023-01-11T02:01:43.972Z,7.32
2023-01-11T02:02:43.968Z,7.39
2023-01-11T02:03:43.934Z,7.40
2023-01-11T02:04:43.901Z,7.49
2023-01-11T02:05:43.872Z,7.40
2023-01-11T02:06:43.878Z,7.35
2023-01-11T02:07:43.826Z,7.45
2023-01-11T02:08:43.840Z,7.50
2023-01-11T02:09:43.873Z,7.48
2023-01-11T02:10:43.775Z,7.49
2023-01-11T02:11:43.758Z,7.50
2023-01-11T02:12:43.740Z,7.50
2023-01-11T02:13:43.716Z,7.52
2023-01-11T02:14:43.714Z,7.50
2023-01-11T02:15:43.758Z,7.45
2023-01-11T02:16:43.679Z,7.52
2023-01-11T02:17:43.651Z,7.55
2023-01-11T02:18:43.639Z,7.52
2023-01-11T02:19:43.609Z,7.48
2023-01-11T02:20:43.701Z,7.45
2023-01-11T02:21:43.673Z,7.52
2023-01-11T02:22:43.555Z,7.49
2023-01-11T02:23:43.539Z,7.50
2023-01-11T02:24:43.541Z,7.45
2023-01-11T02:25:43.501Z,7.52
2023-01-11T02:26:43.481Z,7.49
2023-01-11T02:27:43.489Z,7.46
2023-01-11T02:28:43.478Z,7.46
2023-01-11T02:29:43.436Z,7.48
2023-01-11T02:30:43.428Z,7.49
2023-01-11T02:31:43.404Z,7.45
2023-01-11T02:32:43.426Z,7.49
2023-01-11T02:33:43.366Z,7.49
2023-01-11T02:34:43.337Z,7.46
2023-01-11T02:35:43.318Z,7.46
2023-01-11T02:36:43.301Z,7.52
2023-01-11T02:37:43.289Z,7.49
2023-01-11T02:38:43.269Z,7.53
2023-01-11T02:39:43.254Z,7.57
2023-01-11T02:40:43.230Z,7.53
2023-01-11T02:41:43.240Z,7.57
2023-01-11T02:42:43.199Z,7.60
2023-01-11T02:43:43.175Z,7.61
2023-01-11T02:44:43.152Z,7.63
2023-01-11T02:45:43.165Z,7.58
2023-01-11T02:46:43.160Z,7.61
2023-01-11T02:47:43.105Z,7.48
2023-01-11T02:48:43.202Z,7.61
2023-01-11T02:49:43.073Z,7.63
2023-01-11T02:50:43.104Z,7.68
2023-01-11T02:51:43.058Z,7.68
2023-01-11T02:52:43.010Z,7.74
2023-01-11T02:53:43.003Z,7.69
2023-01-11T02:54:42.972Z,7.72
2023-01-11T02:55:42.959Z,7.82
2023-01-11T02:56:42.996Z,7.77
2023-01-11T02:57:42.926Z,7.82
2023-01-11T02:58:42.951Z,7.86
2023-01-11T02:59:42.881Z,7.95
2023-01-11T03:00:42.867Z,7.95
2023-01-11T03:01:42.909Z,7.86
2023-01-11T03:02:42.874Z,8.00
2023-01-11T03:03:42.817Z,8.05
2023-01-11T03:04:42.812Z,8.00
2023-01-11T03:05:42.774Z,8.00
2023-01-11T03:06:42.785Z,8.11
2023-01-11T03:07:42.743Z,8.08
2023-01-11T03:08:42.741Z,7.97
2023-01-11T03:09:42.755Z,8.08
2023-01-11T03:10:42.686Z,8.05
2023-01-11T03:11:42.667Z,8.08
2023-01-11T03:12:42.650Z,8.08
2023-01-11T03:13:42.629Z,8.10
2023-01-11T03:14:42.607Z,8.07
2023-01-11T03:15:42.703Z,8.12
2023-01-11T03:16:42.576Z,8.07
2023-01-11T03:17:42.569Z,8.08
2023-01-11T03:18:42.567Z,8.04
2023-01-11T03:19:42.524Z,8.05
2023-01-11T03:20:42.524Z,8.10
2023-01-11T03:21:42.526Z,8.15
2023-01-11T03:22:42.527Z,8.10
2023-01-11T03:23:42.451Z,8.07
2023-01-11T03:24:42.460Z,8.07
2023-01-11T03:25:42.455Z,8.04
2023-01-11T03:26:42.412Z,8.08
2023-01-11T03:27:42.378Z,8.07
2023-01-11T03:28:42.366Z,8.04
2023-01-11T03:29:42.343Z,8.15
2023-01-11T03:30:42.341Z,8.10
2023-01-11T03:31:42.416Z,8.11
2023-01-11T03:32:42.291Z,8.10
2023-01-11T03:33:42.280Z,8.10
2023-01-11T03:34:42.250Z,8.12
2023-01-11T03:35:42.237Z,8.08
2023-01-11T03:36:42.358Z,8.07
2023-01-11T03:37:42.202Z,8.05
2023-01-11T03:38:42.176Z,8.11
2023-01-11T03:39:42.160Z,8.11
2023-01-11T03:40:42.152Z,8.07
2023-01-11T03:41:42.140Z,8.15
2023-01-11T03:42:42.147Z,8.15
2023-01-11T03:43:42.116Z,8.12
2023-01-11T03:44:42.104Z,8.07
2023-01-11T03:45:42.055Z,8.10
2023-01-11T03:46:42.049Z,8.16
2023-01-11T03:47:42.020Z,8.07
2023-01-11T03:48:42.035Z,8.07
2023-01-11T03:49:41.986Z,8.11
2023-01-11T03:50:41.960Z,8.15
2023-01-11T03:51:41.953Z,8.15
2023-01-11T03:52:41.929Z,8.15
2023-01-11T03:53:41.913Z,8.16
2023-01-11T03:54:41.919Z,8.10
2023-01-11T03:55:41.931Z,8.18
2023-01-11T03:56:41.853Z,8.15
2023-01-11T03:57:41.864Z,8.04
2023-01-11T03:58:41.845Z,8.15
2023-01-11T03:59:41.840Z,8.07
2023-01-11T04:00:41.828Z,8.08
2023-01-11T04:01:41.776Z,8.20
2023-01-11T04:02:41.763Z,8.11
2023-01-11T04:03:41.788Z,8.16
2023-01-11T04:04:41.738Z,8.02
2023-01-11T04:05:41.707Z,8.10
2023-01-11T04:06:41.697Z,8.08
2023-01-11T04:07:41.658Z,8.07
2023-01-11T04:08:41.651Z,8.04
2023-01-11T04:09:41.667Z,8.10
2023-01-11T04:10:41.615Z,8.08
2023-01-11T04:11:41.590Z,8.04
2023-01-11T04:12:41.569Z,8.15
2023-01-11T04:13:41.555Z,8.05
2023-01-11T04:14:41.555Z,8.07
2023-01-11T04:15:41.526Z,8.02
2023-01-11T04:16:41.624Z,8.08
2023-01-11T04:17:41.492Z,8.08
2023-01-11T04:18:41.458Z,8.05
2023-01-11T04:19:41.489Z,8.10
2023-01-11T04:20:41.485Z,8.07
2023-01-11T04:21:41.409Z,8.12
2023-01-11T04:22:41.388Z,8.05
2023-01-11T04:23:41.386Z,8.08
2023-01-11T04:24:41.356Z,8.05
2023-01-11T04:25:41.336Z,8.08
2023-01-11T04:26:41.948Z,8.05
2023-01-11T04:27:41.343Z,8.11
2023-01-11T04:28:41.279Z,8.07
2023-01-11T04:29:41.265Z,8.11
2023-01-11T04:30:41.248Z,8.05
2023-01-11T04:31:41.336Z,8.05
2023-01-11T04:32:41.209Z,8.08
2023-01-11T04:33:41.195Z,8.12
2023-01-11T04:34:41.183Z,8.12
2023-01-11T04:35:41.163Z,8.07
2023-01-11T04:36:41.144Z,8.05
2023-01-11T04:37:41.168Z,8.08
2023-01-11T04:38:41.106Z,8.12
2023-01-11T04:39:41.098Z,8.16
2023-01-11T04:40:41.076Z,8.05
2023-01-11T04:41:41.073Z,8.10
2023-01-11T04:42:41.401Z,8.15
2023-01-11T04:43:41.044Z,8.10
2023-01-11T04:44:41.135Z,8.16
2023-01-11T04:45:41.003Z,8.16
2023-01-11T04:46:40.979Z,8.15
2023-01-11T04:47:40.984Z,8.11
2023-01-11T04:48:41.109Z,8.10
2023-01-11T04:49:40.917Z,8.08
2023-01-11T04:50:40.948Z,8.16
2023-01-11T04:51:40.875Z,8.15
2023-01-11T04:52:40.887Z,8.18
2023-01-11T04:53:40.918Z,8.19
2023-01-11T04:57:58.164Z,8.23
2023-01-11T04:58:48.666Z,8.29
2023-01-11T04:59:48.040Z,8.30
2023-01-11T05:00:48.049Z,8.34
2023-01-11T05:01:48.787Z,8.36
2023-01-11T05:02:47.995Z,8.33
2023-01-11T05:03:48.084Z,8.30
2023-01-11T05:04:47.957Z,8.41
2023-01-11T05:05:47.971Z,8.43
2023-01-11T05:06:47.976Z,8.37
2023-01-11T05:07:47.900Z,8.33
2023-01-11T05:08:47.917Z,8.33
2023-01-11T05:09:47.923Z,8.38
2023-01-11T05:10:47.871Z,8.40
2023-01-11T05:11:47.926Z,8.37
2023-01-11T05:12:47.921Z,8.38
2023-01-11T05:13:47.843Z,8.36
2023-01-11T05:17:20.568Z,8.38
2023-01-11T05:18:05.945Z,8.33
2023-01-11T05:19:05.900Z,8.34
2023-01-11T05:20:05.887Z,8.38
2023-01-11T05:21:05.868Z,8.28
2023-01-11T05:22:05.846Z,8.25
2023-01-11T05:23:05.833Z,8.34
2023-01-11T05:24:05.853Z,8.37
2023-01-11T05:25:05.942Z,8.43
2023-01-11T05:26:05.828Z,8.47
2023-01-11T05:27:05.784Z,8.47
2023-01-11T05:28:19.139Z,8.45
2023-01-11T05:29:05.735Z,8.52
2023-01-11T05:30:05.746Z,8.56
2023-01-11T05:31:05.786Z,8.58
2023-01-11T05:32:05.726Z,8.53
2023-01-11T05:33:05.710Z,8.48
2023-01-11T05:34:05.627Z,8.50
2023-01-11T05:35:05.613Z,8.55
2023-01-11T05:36:05.631Z,8.56
2023-01-11T05:37:05.584Z,8.59
2023-01-11T05:38:05.572Z,8.56
2023-01-11T05:39:05.544Z,8.59
2023-01-11T05:40:05.514Z,8.63
2023-01-11T05:41:06.377Z,8.55
2023-01-11T05:42:05.483Z,8.59
2023-01-11T05:43:05.462Z,8.66
2023-01-11T05:44:05.452Z,8.66
2023-01-11T05:45:05.488Z,8.68
2023-01-11T05:46:05.455Z,8.63
2023-01-11T05:47:06.087Z,8.62
2023-01-11T05:48:05.377Z,8.73
2023-01-11T05:49:05.355Z,8.61
2023-01-11T05:50:05.337Z,8.68
2023-01-11T05:51:05.345Z,8.62
2023-01-11T05:52:05.306Z,8.68
2023-01-11T05:53:05.326Z,8.73
2023-01-11T05:54:05.364Z,8.61
2023-01-11T05:55:05.244Z,8.65
2023-01-11T05:56:05.224Z,8.65
2023-01-11T05:57:05.206Z,8.65
2023-01-11T05:58:05.203Z,8.59
2023-01-11T05:59:05.177Z,8.66
2023-01-11T06:00:05.223Z,8.74
2023-01-11T06:01:05.139Z,8.70
2023-01-11T06:02:05.205Z,8.73
2023-01-11T06:03:05.161Z,8.66
2023-01-11T06:04:05.137Z,8.63
2023-01-11T06:05:05.075Z,8.73
2023-01-11T06:06:05.116Z,8.76
2023-01-11T06:07:05.139Z,8.61
2023-01-11T06:08:05.022Z,8.71
2023-01-11T06:09:05.019Z,8.68
2023-01-11T06:10:04.979Z,8.66
2023-01-11T06:11:04.975Z,8.80
2023-01-11T06:12:04.955Z,8.76
2023-01-11T06:13:04.939Z,8.70
2023-01-11T06:14:04.908Z,8.73
2023-01-11T06:15:04.916Z,8.71
2023-01-11T06:16:04.898Z,8.80
2023-01-11T06:17:04.860Z,8.84
2023-01-11T06:18:04.843Z,8.84
2023-01-11T06:19:04.816Z,8.80
2023-01-11T06:20:04.802Z,8.84
2023-01-11T06:21:06.679Z,8.79
2023-01-11T06:22:04.772Z,8.80
2023-01-11T06:23:04.747Z,8.71
2023-01-11T06:24:04.729Z,8.73
2023-01-11T06:25:04.716Z,8.74
2023-01-11T06:26:04.718Z,8.81
2023-01-11T06:27:04.703Z,8.79
2023-01-11T06:28:04.687Z,8.92
2023-01-11T06:29:04.711Z,8.86
2023-01-11T06:30:04.630Z,8.84
2023-01-11T06:31:04.655Z,8.91
2023-01-11T06:32:04.590Z,8.92
2023-01-11T06:33:04.570Z,8.94
2023-01-11T06:34:04.569Z,8.95
2023-01-11T06:35:04.578Z,8.92
2023-01-11T06:36:04.546Z,8.94
2023-01-11T06:37:04.503Z,8.94
2023-01-11T06:38:04.482Z,8.92
2023-01-11T06:39:04.470Z,8.94
2023-01-11T06:40:04.448Z,8.94
2023-01-11T06:41:04.423Z,8.99
2023-01-11T06:42:04.414Z,8.92
2023-01-11T06:43:04.388Z,8.94
2023-01-11T06:44:04.431Z,8.86
2023-01-11T06:45:04.374Z,8.91
2023-01-11T06:46:04.409Z,8.86
2023-01-11T06:47:04.318Z,8.95
2023-01-11T06:48:04.309Z,8.91
2023-01-11T06:49:04.298Z,8.91
2023-01-11T06:50:04.299Z,9.02
2023-01-11T06:51:04.243Z,9.01
2023-01-11T06:52:04.261Z,8.99
2023-01-11T06:53:04.224Z,9.04
2023-01-11T06:54:04.193Z,8.94
2023-01-11T06:55:04.212Z,9.05
2023-01-11T06:56:04.204Z,9.05
2023-01-11T06:57:04.172Z,9.13
2023-01-11T06:58:04.128Z,9.14
2023-01-11T06:59:04.122Z,9.10
2023-01-11T07:00:04.095Z,9.11
2023-01-11T07:01:04.143Z,9.11
2023-01-11T07:02:04.089Z,9.13
2023-01-11T07:03:04.063Z,9.10
2023-01-11T07:04:04.021Z,9.13
2023-01-11T07:05:04.061Z,9.11
2023-01-11T07:06:04.013Z,9.02
2023-01-11T07:07:03.997Z,9.13
2023-01-11T07:08:03.950Z,9.15
2023-01-11T07:09:03.938Z,9.13
2023-01-11T07:10:03.912Z,9.10
2023-01-11T07:11:03.986Z,9.14
2023-01-11T07:12:03.880Z,9.13
2023-01-11T07:13:03.866Z,9.08
2023-01-11T07:14:03.855Z,9.13
2023-01-11T07:15:03.819Z,9.20
2023-01-11T07:16:03.891Z,9.21
2023-01-11T07:17:03.795Z,9.08
2023-01-11T07:18:03.787Z,9.14
2023-01-11T07:19:03.769Z,9.15
2023-01-11T07:20:03.776Z,9.14
2023-01-11T07:21:03.788Z,9.14
2023-01-11T07:22:03.707Z,9.15
2023-01-11T07:23:03.728Z,9.21
2023-01-11T07:24:03.675Z,9.23
2023-01-11T07:25:03.655Z,9.21
2023-01-11T07:26:03.728Z,9.18
2023-01-11T07:27:03.657Z,9.23
2023-01-11T07:28:03.596Z,9.20
2023-01-11T07:29:03.580Z,9.26
2023-01-11T07:30:03.565Z,9.17
2023-01-11T07:31:03.597Z,9.24
2023-01-11T07:32:03.608Z,9.20
2023-01-11T07:33:03.507Z,9.29
2023-01-11T07:34:03.489Z,9.28
2023-01-11T07:35:03.491Z,9.28
2023-01-11T07:36:03.465Z,9.24
2023-01-11T07:37:03.435Z,9.21
2023-01-11T07:38:03.423Z,9.26
2023-01-11T07:39:03.407Z,9.28
2023-01-11T07:40:03.384Z,9.39
2023-01-11T07:41:03.405Z,9.31
2023-01-11T07:42:03.352Z,9.36
2023-01-11T07:43:03.355Z,9.31
2023-01-11T07:44:03.330Z,9.43
2023-01-11T07:45:03.322Z,9.40
2023-01-11T07:46:03.416Z,9.40
2023-01-11T07:47:03.332Z,9.40
2023-01-11T07:48:03.268Z,9.38
2023-01-11T07:49:03.290Z,9.31
2023-01-11T07:50:03.219Z,9.32
2023-01-11T07:51:03.191Z,9.38
2023-01-11T07:52:03.186Z,9.42
2023-01-11T07:53:03.152Z,9.36
2023-01-11T07:54:03.135Z,9.42
2023-01-11T07:55:03.134Z,9.38
2023-01-11T07:56:03.116Z,9.38
2023-01-11T07:57:03.084Z,9.39
2023-01-11T07:58:03.076Z,9.38
2023-01-11T07:59:03.052Z,9.43
2023-01-11T08:00:03.036Z,9.47
2023-01-11T08:01:03.018Z,9.50
2023-01-11T08:02:03.013Z,9.40
2023-01-11T08:03:03.301Z,9.36
2023-01-11T08:04:03.005Z,9.38
2023-01-11T08:05:03.424Z,9.48
2023-01-11T08:06:02.928Z,9.38
2023-01-11T08:07:03.005Z,9.32
2023-01-11T08:08:02.895Z,9.36
2023-01-11T08:09:02.907Z,9.40
2023-01-11T08:10:02.862Z,9.51
2023-01-11T08:11:04.907Z,9.35
2023-01-11T08:12:02.825Z,9.38
2023-01-11T08:13:02.807Z,9.51
2023-01-11T08:14:02.792Z,9.51
2023-01-11T08:15:02.770Z,9.38
2023-01-11T08:16:02.919Z,9.48
2023-01-11T08:17:02.834Z,9.53
2023-01-11T08:18:02.727Z,9.47
2023-01-11T08:19:02.695Z,9.48
2023-01-11T08:20:02.685Z,9.48
2023-01-11T08:21:02.724Z,9.46
2023-01-11T08:22:02.691Z,9.46
2023-01-11T08:23:02.631Z,9.56
2023-01-11T08:24:02.629Z,9.47
2023-01-11T08:25:02.616Z,9.51
2023-01-11T08:26:02.661Z,9.43
2023-01-11T08:27:02.791Z,9.47
2023-01-11T08:28:02.565Z,9.58
2023-01-11T08:29:02.530Z,9.54
2023-01-11T08:30:02.618Z,9.48
2023-01-11T08:31:02.666Z,9.56
2023-01-11T08:32:03.591Z,9.57
2023-01-11T08:33:02.568Z,9.60
2023-01-11T08:34:02.727Z,9.57
2023-01-11T08:35:02.478Z,9.57
2023-01-11T08:36:02.439Z,9.56
2023-01-11T08:37:02.504Z,9.64
2023-01-11T08:38:02.374Z,9.60
2023-01-11T08:39:02.357Z,9.60
2023-01-11T08:40:02.383Z,9.57
2023-01-11T08:41:02.434Z,9.60
2023-01-11T08:42:02.306Z,9.60
2023-01-11T08:43:02.356Z,9.61
2023-01-11T08:44:02.356Z,9.58
2023-01-11T08:45:03.143Z,9.56
2023-01-11T08:46:02.300Z,9.54
2023-01-11T08:47:02.268Z,9.61
2023-01-11T08:48:02.199Z,9.57
2023-01-11T08:49:02.303Z,9.47
2023-01-11T08:50:02.238Z,9.56
2023-01-11T08:51:02.151Z,9.56
2023-01-11T08:52:02.168Z,9.54
2023-01-11T08:53:02.118Z,9.51
2023-01-11T08:54:02.101Z,9.58
2023-01-11T08:55:02.101Z,9.47
2023-01-11T08:56:02.063Z,9.46
2023-01-11T08:57:02.046Z,9.50
2023-01-11T08:58:02.033Z,9.47
2023-01-11T08:59:02.006Z,9.47
2023-01-11T09:00:02.051Z,9.50
2023-01-11T09:01:02.005Z,9.58
2023-01-11T09:02:02.055Z,9.54
2023-01-11T09:03:02.046Z,9.56
2023-01-11T09:04:03.677Z,9.48
2023-01-11T09:05:01.906Z,9.53
2023-01-11T09:06:01.898Z,9.56
2023-01-11T09:07:01.872Z,9.57
2023-01-11T09:08:01.895Z,9.57
2023-01-11T09:09:01.837Z,9.57
2023-01-11T09:10:01.842Z,9.56
2023-01-11T09:11:01.819Z,9.57
2023-01-11T09:12:03.493Z,9.61
2023-01-11T09:13:01.803Z,9.60
2023-01-11T09:14:01.820Z,9.58
2023-01-11T09:15:01.746Z,9.57
2023-01-11T09:16:01.789Z,9.72
2023-01-11T09:17:01.717Z,9.64
2023-01-11T09:18:01.721Z,9.58
2023-01-11T09:19:01.676Z,9.60
2023-01-11T09:20:01.765Z,9.60
2023-01-11T09:21:01.643Z,9.71
2023-01-11T09:22:01.619Z,9.71
2023-01-11T09:23:01.600Z,9.60
2023-01-11T09:24:01.609Z,9.57
2023-01-11T09:25:01.568Z,9.71
2023-01-11T09:26:01.551Z,9.72
2023-01-11T09:27:01.577Z,9.71
2023-01-11T09:28:01.523Z,9.74
2023-01-11T09:29:01.573Z,9.71
2023-01-11T09:30:01.507Z,9.71
2023-01-11T09:31:01.531Z,9.69
2023-01-11T09:32:01.448Z,9.71
2023-01-11T09:33:01.457Z,9.69
2023-01-11T09:34:01.421Z,9.74
2023-01-11T09:35:01.411Z,9.76
2023-01-11T09:36:01.415Z,9.72
2023-01-11T09:37:01.362Z,9.69
2023-01-11T09:38:01.350Z,9.69
2023-01-11T09:39:01.327Z,9.72
2023-01-11T09:40:01.347Z,9.76
2023-01-11T09:41:01.342Z,9.68
2023-01-11T09:42:01.284Z,9.74
2023-01-11T09:43:01.310Z,9.64
2023-01-11T09:44:01.262Z,9.72
2023-01-11T09:45:01.235Z,9.68
2023-01-11T09:46:01.220Z,9.76
2023-01-11T09:47:01.207Z,9.71
2023-01-11T09:48:01.220Z,9.69
2023-01-11T09:49:01.259Z,9.74
2023-01-11T09:50:01.181Z,9.69
2023-01-11T09:51:01.148Z,9.78
2023-01-11T09:52:01.156Z,9.75
2023-01-11T09:53:01.132Z,9.71
2023-01-11T09:54:01.077Z,9.75
2023-01-11T09:55:01.072Z,9.71
2023-01-11T09:56:01.067Z,9.72
2023-01-11T09:57:01.044Z,9.75
2023-01-11T09:58:01.026Z,9.76
2023-01-11T09:59:01.018Z,9.79
2023-01-11T10:00:01.007Z,9.84
2023-01-11T10:01:01.540Z,9.79
2023-01-11T10:02:00.958Z,9.86
2023-01-11T10:03:01.198Z,9.79
2023-01-11T10:04:01.050Z,9.84
2023-01-11T10:05:00.932Z,9.90
2023-01-11T10:06:00.908Z,9.72
2023-01-11T10:07:00.859Z,9.87
2023-01-11T10:14:01.917Z,9.87
2023-01-11T10:18:23.559Z,9.90
2023-01-11T10:18:28.731Z,9.87
2023-01-11T10:18:29.106Z,9.89
2023-01-11T10:18:29.963Z,9.87
2023-01-11T10:19:33.494Z,9.90
2023-01-11T10:20:00.787Z,9.87
2023-01-11T10:21:00.622Z,9.86
2023-01-11T10:22:00.613Z,9.76
2023-01-11T10:23:00.587Z,9.89
2023-01-11T10:24:00.576Z,9.87
2023-01-11T10:25:00.554Z,9.84
2023-01-11T10:26:00.588Z,9.89
2023-01-11T10:27:00.561Z,9.89
2023-01-11T10:28:00.502Z,9.76
2023-01-11T10:29:00.484Z,9.90
2023-01-11T10:30:00.475Z,9.81
2023-01-11T10:31:00.456Z,9.78
2023-01-11T10:32:00.440Z,9.84
2023-01-11T10:33:02.153Z,9.91
2023-01-11T10:34:00.416Z,9.93
2023-01-11T10:35:00.383Z,9.94
2023-01-11T10:36:00.385Z,9.91
2023-01-11T10:37:00.397Z,9.93
2023-01-11T10:38:00.382Z,9.96
2023-01-11T10:39:00.318Z,9.97
2023-01-11T10:40:00.305Z,9.91
2023-01-11T10:41:00.281Z,10.01
2023-01-11T10:42:00.272Z,9.97
2023-01-11T10:43:00.257Z,9.94
2023-01-11T10:44:00.259Z,9.93
2023-01-11T10:45:00.255Z,10.05
2023-01-11T10:46:00.309Z,9.97
2023-01-11T10:47:00.183Z,10.04
2023-01-11T10:48:00.455Z,10.01
2023-01-11T10:49:00.204Z,9.94
2023-01-11T10:50:00.187Z,9.99
2023-01-11T10:51:00.144Z,9.93
2023-01-11T10:52:00.138Z,10.02
2023-01-11T10:53:00.119Z,9.99
2023-01-11T10:54:00.069Z,9.99
2023-01-11T10:55:00.107Z,9.99
2023-01-11T10:56:00.033Z,9.99
2023-01-11T10:57:03.146Z,10.05
2023-01-11T10:58:02.593Z,9.93
2023-01-11T10:58:59.990Z,9.99
2023-01-11T11:00:00.003Z,9.96
2023-01-11T11:01:00.049Z,10.02
2023-01-11T11:01:59.981Z,10.08
2023-01-11T11:02:59.917Z,9.96
2023-01-11T11:03:59.909Z,9.97
2023-01-11T11:04:59.885Z,9.93
2023-01-11T11:05:59.861Z,10.02
2023-01-11T11:06:59.858Z,9.94
2023-01-11T11:07:59.828Z,10.04
2023-01-11T11:08:59.812Z,10.02
2023-01-11T11:09:59.807Z,10.01
2023-01-11T11:10:59.835Z,10.09
2023-01-11T11:11:59.769Z,9.99
2023-01-11T11:12:59.747Z,9.91
2023-01-11T11:13:59.739Z,9.96
2023-01-11T11:14:59.712Z,9.93
2023-01-11T11:15:59.741Z,9.94
2023-01-11T11:16:59.748Z,9.99
2023-01-11T11:17:59.664Z,9.99
2023-01-11T11:18:59.659Z,10.01
2023-01-11T11:19:59.632Z,9.99
2023-01-11T11:20:59.613Z,9.99
2023-01-11T11:21:59.598Z,9.96
2023-01-11T11:22:59.619Z,10.04
2023-01-11T11:23:59.558Z,10.01
2023-01-11T11:24:59.546Z,10.01
2023-01-11T11:25:59.529Z,10.08
2023-01-11T11:26:59.598Z,9.99
2023-01-11T11:27:59.518Z,9.93
2023-01-11T11:28:59.478Z,9.99
2023-01-11T11:29:59.473Z,9.97
2023-01-11T11:30:59.444Z,10.04
2023-01-11T11:31:59.481Z,10.01
2023-01-11T11:32:59.448Z,10.05
2023-01-11T11:33:59.398Z,9.96
2023-01-11T11:34:59.590Z,9.96
2023-01-11T11:35:59.384Z,10.02
2023-01-11T11:36:59.355Z,9.99
2023-01-11T11:37:59.356Z,9.94
2023-01-11T11:38:59.313Z,9.97
2023-01-11T11:39:59.293Z,10.04
2023-01-11T11:40:59.275Z,10.04
2023-01-11T11:41:59.256Z,9.94
2023-01-11T11:42:59.239Z,10.04
2023-01-11T11:43:59.227Z,10.04
2023-01-11T11:44:59.215Z,10.05
2023-01-11T11:45:59.234Z,10.04
2023-01-11T11:46:59.173Z,10.04
2023-01-11T11:47:59.159Z,9.96
2023-01-11T11:48:59.147Z,10.05
2023-01-11T11:49:59.120Z,9.96
2023-01-11T11:50:59.113Z,10.01
2023-01-11T11:51:59.089Z,9.97
2023-01-11T11:52:59.078Z,10.01
2023-01-11T11:53:59.072Z,10.02
2023-01-11T11:54:59.073Z,10.05
2023-01-11T11:55:59.030Z,10.05
2023-01-11T11:56:59.018Z,10.05
2023-01-11T11:57:58.991Z,9.99
2023-01-11T11:58:58.980Z,10.05
2023-01-11T11:59:58.957Z,10.01
2023-01-11T12:00:58.943Z,9.97
2023-01-11T12:01:58.952Z,9.97
2023-01-11T12:02:58.909Z,9.96
2023-01-11T12:03:58.886Z,9.96
2023-01-11T12:04:58.953Z,9.99
2023-01-11T12:05:58.913Z,9.93
2023-01-11T12:06:58.850Z,10.07
2023-01-11T12:07:58.818Z,10.05
2023-01-11T12:08:58.804Z,10.12
2023-01-11T12:09:58.789Z,10.09
2023-01-11T12:10:58.780Z,10.14
2023-01-11T12:11:58.750Z,10.25
2023-01-11T12:12:58.740Z,10.22
2023-01-11T12:13:58.720Z,10.23
2023-01-11T12:14:58.706Z,10.23
2023-01-11T12:15:58.718Z,10.11
2023-01-11T12:16:58.831Z,10.25
2023-01-11T12:17:58.665Z,10.11
2023-01-11T12:18:58.636Z,10.02
2023-01-11T12:19:58.620Z,9.97
2023-01-11T12:20:58.629Z,9.84
2023-01-11T12:21:58.585Z,9.78
2023-01-11T12:22:58.608Z,9.78
2023-01-11T12:23:58.552Z,9.79
2023-01-11T12:24:58.543Z,9.94
2023-01-11T12:25:58.519Z,9.87
2023-01-11T12:26:58.556Z,9.97
2023-01-11T12:27:58.495Z,9.94
2023-01-11T12:28:58.537Z,10.01
2023-01-11T12:29:58.463Z,10.05
2023-01-11T12:30:58.581Z,10.01
2023-01-11T12:31:58.422Z,10.05
2023-01-11T12:32:58.400Z,10.01
2023-01-11T12:33:58.385Z,10.05
2023-01-11T12:34:58.395Z,10.07
2023-01-11T12:35:58.351Z,10.09
2023-01-11T12:37:05.423Z,10.11
2023-01-11T12:37:58.322Z,10.07
2023-01-11T12:38:58.309Z,10.15
2023-01-11T12:39:58.285Z,10.15
2023-01-11T12:40:58.265Z,10.12
2023-01-11T12:41:58.253Z,10.09
2023-01-11T12:42:58.259Z,10.07
2023-01-11T12:43:58.220Z,9.94
2023-01-11T12:44:58.215Z,10.01
2023-01-11T12:45:58.222Z,9.99
2023-01-11T12:46:58.199Z,9.84
2023-01-11T12:47:58.215Z,9.86
2023-01-11T12:48:58.143Z,9.83
2023-01-11T12:49:58.119Z,9.81
2023-01-11T12:50:58.104Z,9.83
2023-01-11T12:51:58.080Z,9.83
2023-01-11T12:52:58.067Z,9.78
2023-01-11T12:53:58.047Z,9.96
2023-01-11T12:54:58.038Z,9.89
2023-01-11T12:55:58.021Z,9.94
2023-01-11T12:56:57.998Z,9.84
2023-01-11T12:57:58.005Z,9.78
2023-01-11T12:58:57.977Z,9.71
2023-01-11T12:59:57.944Z,9.74
2023-01-11T13:00:57.980Z,9.61
2023-01-11T13:01:57.907Z,9.74
2023-01-11T13:02:57.968Z,9.58
2023-01-11T13:03:57.880Z,9.58
2023-01-11T13:04:57.895Z,9.56
2023-01-11T13:05:57.845Z,9.65
2023-01-11T13:06:57.826Z,9.69
2023-01-11T13:07:57.810Z,9.65
2023-01-11T13:08:57.863Z,9.57
2023-01-11T13:09:57.775Z,9.74
2023-01-11T13:10:57.764Z,9.72
2023-01-11T13:11:57.742Z,9.72
2023-01-11T13:12:57.730Z,9.75
2023-01-11T13:13:57.716Z,9.76
2023-01-11T13:14:57.691Z,9.64
2023-01-11T13:15:57.679Z,9.72
2023-01-11T13:16:57.702Z,9.72
2023-01-11T13:17:57.650Z,9.83
2023-01-11T13:18:57.623Z,9.84
2023-01-11T13:19:57.600Z,9.76
2023-01-11T13:21:02.474Z,9.93
2023-01-11T13:21:57.567Z,9.93
2023-01-11T13:22:57.562Z,9.99
2023-01-11T13:23:57.804Z,10.08
2023-01-11T13:24:57.520Z,10.12
2023-01-11T13:25:57.502Z,10.17
2023-01-11T13:26:57.496Z,10.18
2023-01-11T13:27:57.480Z,9.97